Time;durP1;ratioP1;P1;durP2;ratioP2;P2;SDS_P1;SDS_P2;PMS_P1;PMS_P2;Temp;Humidity;BMP_temperature;BMP_pressure;BME280_temperature;BME280_humidity;BME280_pressure;Samples;Min_cycle;Max_cycle;Signal;HPM_P1;HPM_P2
2021/09/23 00:00:22;;;;;;;6.50;4.70;;;;;;;9.10;93.27;100822.29;1650869;86;21074;-53
2021/09/23 00:05:29;;;;;;;10.20;4.60;;;;;;;9.15;92.87;100824.84;1644993;85;21113;-58
2021/09/23 00:07:58;;;;;;;6.95;4.30;;;;;;;9.20;93.01;100827.41;1638742;85;21055;-57
2021/09/23 00:10:28;;;;;;;12.60;5.08;;;;;;;9.24;92.72;100823.23;1664786;86;21826;-55
2021/09/23 00:12:57;;;;;;;7.50;4.70;;;;;;;9.25;92.54;100823.66;1650986;86;21023;-55
2021/09/23 00:15:24;;;;;;;9.03;4.92;;;;;;;9.27;92.47;100826.30;1641831;85;21115;-54
2021/09/23 00:17:57;;;;;;;9.18;4.83;;;;;;;9.29;92.32;100824.45;1650716;86;21067;-56
2021/09/23 00:20:28;;;;;;;8.10;5.00;;;;;;;9.29;92.30;100828.47;1651275;86;21184;-58
2021/09/23 00:22:55;;;;;;;11.53;4.85;;;;;;;9.31;92.34;100831.53;1644856;85;21158;-58
2021/09/23 00:25:25;;;;;;;7.03;4.78;;;;;;;9.33;92.22;100837.30;1659406;84;21068;-58
2021/09/23 00:27:53;;;;;;;12.95;4.90;;;;;;;9.31;92.29;100832.87;1642748;86;21677;-54
2021/09/23 00:30:22;;;;;;;7.92;5.10;;;;;;;9.28;92.41;100822.26;1656084;85;21072;-54
2021/09/23 00:32:52;;;;;;;10.08;5.42;;;;;;;9.29;92.58;100825.34;1655233;85;21012;-54
2021/09/23 00:35:19;;;;;;;9.08;5.85;;;;;;;9.28;92.79;100826.27;1663117;85;21152;-55
2021/09/23 00:37:49;;;;;;;7.47;4.85;;;;;;;9.28;93.07;100818.69;1642294;86;21111;-58
2021/09/23 00:42:58;;;;;;;10.03;5.60;;;;;;;9.22;93.56;100814.86;1654247;84;21071;-57
2021/09/23 00:45:31;;;;;;;10.25;6.25;;;;;;;9.23;94.01;100813.94;1657566;84;21021;-54
2021/09/23 00:47:58;;;;;;;10.80;6.12;;;;;;;9.23;93.98;100819.28;1646553;85;21160;-58
2021/09/23 00:50:25;;;;;;;7.22;5.30;;;;;;;9.22;94.28;100814.86;1644311;85;21065;-55
2021/09/23 00:52:54;;;;;;;6.80;5.08;;;;;;;9.22;94.54;100815.72;1644298;87;21063;-54
2021/09/23 00:55:21;;;;;;;6.78;4.85;;;;;;;9.23;94.75;100813.94;1645333;85;21114;-54
2021/09/23 00:57:49;;;;;;;12.75;7.00;;;;;;;9.24;94.65;100816.55;1644726;85;21587;-54
2021/09/23 01:00:17;;;;;;;8.35;6.05;;;;;;;9.26;94.86;100814.70;1641332;85;21812;-54
2021/09/23 01:05:40;;;;;;;10.68;6.62;;;;;;;9.27;94.91;100812.45;1646226;85;21092;-57
2021/09/23 01:10:40;;;;;;;10.68;6.00;;;;;;;9.24;95.25;100813.02;1651280;85;21768;-59
2021/09/23 01:13:08;;;;;;;10.13;5.75;;;;;;;9.26;95.43;100813.37;1651106;86;21124;-59
2021/09/23 01:15:54;;;;;;;9.63;6.47;;;;;;;9.25;95.36;100822.80;1651053;86;21052;-58
2021/09/23 01:18:25;;;;;;;10.78;6.70;;;;;;;9.24;95.49;100813.88;1646309;85;21056;-58
2021/09/23 01:20:52;;;;;;;11.75;6.58;;;;;;;9.24;95.64;100811.67;1640993;85;21453;-58
2021/09/23 01:23:21;;;;;;;16.00;7.33;;;;;;;9.24;95.76;100814.35;1642077;85;20968;-57
2021/09/23 01:25:50;;;;;;;13.88;7.28;;;;;;;9.23;95.85;100820.63;1644308;85;21204;-59
2021/09/23 01:33:17;;;;;;;12.30;6.70;;;;;;;9.17;96.23;100819.88;1643494;85;21552;-57
2021/09/23 01:35:44;;;;;;;14.68;7.08;;;;;;;9.14;96.32;100817.75;1651335;86;21544;-58
2021/09/23 01:38:12;;;;;;;10.85;6.60;;;;;;;9.14;96.64;100820.42;1651147;86;21804;-58
2021/09/23 01:40:39;;;;;;;9.65;6.03;;;;;;;9.16;96.70;100809.21;1651252;86;21087;-58
2021/09/23 01:43:09;;;;;;;10.45;6.92;;;;;;;9.17;96.68;100811.86;1639899;85;20977;-54
2021/09/23 01:45:41;;;;;;;12.05;6.58;;;;;;;9.17;96.49;100813.20;1663157;84;21061;-53
2021/09/23 01:50:38;;;;;;;10.65;6.42;;;;;;;9.14;96.44;100813.25;1670083;84;21536;-58
2021/09/23 01:53:05;;;;;;;9.13;6.05;;;;;;;9.17;96.42;100814.98;1666003;85;21092;-53
2021/09/23 01:55:35;;;;;;;13.40;6.53;;;;;;;9.11;96.27;100817.36;1666237;84;21011;-54
2021/09/23 01:58:02;;;;;;;20.10;7.00;;;;;;;9.08;96.27;100812.58;1669205;84;21598;-54
2021/09/23 02:00:30;;;;;;;26.55;8.00;;;;;;;9.03;96.32;100814.89;1648033;85;21051;-54
2021/09/23 02:02:58;;;;;;;14.10;6.80;;;;;;;9.02;96.56;100813.61;1652463;86;21164;-54
2021/09/23 02:05:36;;;;;;;;;;;;;;;9.00;96.61;100810.97;1619340;87;21106;-58
2021/09/23 02:08:04;;;;;;;12.58;6.53;;;;;;;9.00;96.49;100807.44;1640632;85;20198;-57
2021/09/23 02:10:32;;;;;;;11.88;6.87;;;;;;;8.98;96.53;100809.28;1647968;86;21135;-54
2021/09/23 02:13:00;;;;;;;11.73;6.80;;;;;;;8.97;96.55;100807.52;1644515;86;21091;-54
2021/09/23 02:15:30;;;;;;;9.83;6.33;;;;;;;8.94;96.53;100807.14;1649314;86;21915;-57
2021/09/23 02:17:58;;;;;;;13.13;6.58;;;;;;;8.92;96.55;100805.41;1648067;86;21547;-58
2021/09/23 02:20:26;;;;;;;15.65;6.75;;;;;;;8.90;96.63;100808.14;1645490;85;21036;-58
2021/09/23 02:22:54;;;;;;;10.23;6.15;;;;;;;8.90;96.70;100805.47;1633190;85;21059;-58
2021/09/23 02:25:23;;;;;;;11.85;6.50;;;;;;;8.91;96.83;100808.56;1645475;86;21130;-58
2021/09/23 02:27:52;;;;;;;11.12;6.30;;;;;;;8.95;96.87;100809.33;1646341;85;21033;-55
2021/09/23 02:30:19;;;;;;;8.93;5.70;;;;;;;8.96;96.70;100811.12;1650026;86;21005;-55
2021/09/23 02:32:46;;;;;;;10.88;6.25;;;;;;;8.94;96.58;100800.45;1638777;85;21112;-53
2021/09/23 02:37:53;;;;;;;10.50;6.15;;;;;;;8.94;96.49;100801.78;1622457;86;21078;-53
2021/09/23 02:42:52;;;;;;;12.05;6.62;;;;;;;8.94;96.39;100794.20;1655006;86;21080;-54
2021/09/23 02:47:52;;;;;;;9.18;5.90;;;;;;;8.92;96.50;100792.04;1642378;85;21525;-53
2021/09/23 02:50:25;;;;;;;11.33;5.87;;;;;;;8.94;96.49;100795.55;1646817;86;21135;-58
2021/09/23 02:52:53;;;;;;;13.88;6.42;;;;;;;8.92;96.45;100797.39;1645854;86;21101;-57
2021/09/23 02:55:20;;;;;;;13.22;7.37;;;;;;;8.90;96.43;100790.77;1646590;85;21124;-58
2021/09/23 02:57:54;;;;;;;11.33;6.50;;;;;;;8.87;96.47;100789.04;1644397;85;21043;-58
2021/09/23 03:00:27;;;;;;;8.40;5.97;;;;;;;8.88;96.70;100790.79;1642836;86;21095;-55
2021/09/23 03:02:54;;;;;;;9.20;5.50;;;;;;;8.90;96.68;100790.77;1642404;85;21016;-53
2021/09/23 03:05:21;;;;;;;12.45;6.10;;;;;;;8.88;96.72;100794.80;1659997;86;21158;-53
2021/09/23 03:07:49;;;;;;;9.83;6.17;;;;;;;8.91;96.88;100788.95;1656068;85;21145;-53
2021/09/23 03:10:20;;;;;;;9.48;5.60;;;;;;;8.91;96.85;100793.85;1666043;84;21623;-53
2021/09/23 03:15:21;;;;;;;9.73;5.95;;;;;;;8.95;96.93;100793.29;1664760;85;21077;-54
2021/09/23 03:17:59;;;;;;;10.43;6.37;;;;;;;8.94;96.84;100788.86;1673929;84;21083;-54
2021/09/23 03:20:28;;;;;;;8.73;5.58;;;;;;;8.92;96.78;100793.37;1668309;86;21119;-54
2021/09/23 03:22:57;;;;;;;10.55;5.67;;;;;;;8.89;96.99;100789.87;1650426;85;20948;-54
2021/09/23 03:25:26;;;;;;;8.73;5.62;;;;;;;8.92;97.05;100794.71;1669007;85;21147;-54
2021/09/23 03:27:55;;;;;;;11.83;6.42;;;;;;;8.93;97.20;100807.16;1666436;85;21013;-53
2021/09/23 03:30:22;;;;;;;12.45;5.90;;;;;;;8.95;97.18;100798.63;1664187;85;21156;-54
2021/09/23 03:32:49;;;;;;;8.23;5.35;;;;;;;8.92;97.18;100802.29;1642254;85;21130;-54
2021/09/23 03:35:18;;;;;;;8.40;5.28;;;;;;;8.93;97.41;100808.50;1658801;86;21154;-54
2021/09/23 03:37:46;;;;;;;10.03;5.50;;;;;;;8.94;97.42;100804.91;1664947;85;21143;-58
2021/09/23 03:40:13;;;;;;;9.33;4.75;;;;;;;8.95;97.50;100806.66;1667675;84;21102;-58
2021/09/23 03:42:42;;;;;;;9.38;5.55;;;;;;;9.01;97.68;100809.19;1666028;84;21104;-58
2021/09/23 03:45:09;;;;;;;15.13;6.08;;;;;;;9.06;97.45;100811.27;1667615;85;21074;-58
2021/09/23 03:47:36;;;;;;;11.63;5.30;;;;;;;9.07;97.24;100819.70;1664703;85;21086;-58
2021/09/23 03:52:33;;;;;;;14.18;5.92;;;;;;;9.15;97.03;100815.01;1650194;85;21051;-57
2021/09/23 03:55:00;;;;;;;12.65;6.60;;;;;;;9.18;97.04;100814.06;1657058;85;21135;-58
2021/09/23 03:57:28;;;;;;;12.07;6.10;;;;;;;9.23;96.96;100808.59;1648016;85;21101;-58
2021/09/23 03:59:55;;;;;;;14.05;6.30;;;;;;;9.27;96.82;100815.59;1651361;85;21112;-57
2021/09/23 04:04:52;;;;;;;17.27;6.50;;;;;;;9.30;96.52;100814.17;1648180;87;21130;-53
2021/09/23 04:07:21;;;;;;;13.32;6.22;;;;;;;9.29;96.38;100817.77;1643914;86;21494;-53
2021/09/23 04:09:48;;;;;;;9.63;5.87;;;;;;;9.32;96.43;100821.69;1623471;86;21071;-53
2021/09/23 04:12:17;;;;;;;9.23;5.72;;;;;;;9.35;96.33;100826.09;1649655;85;21070;-54
2021/09/23 04:14:45;;;;;;;9.80;6.10;;;;;;;9.36;96.25;100827.36;1659752;85;21635;-55
2021/09/23 04:17:14;;;;;;;11.10;5.80;;;;;;;9.38;96.18;100824.17;1671603;84;20945;-54
2021/09/23 04:19:41;;;;;;;10.10;6.08;;;;;;;9.42;96.12;100829.88;1653196;85;21066;-54
2021/09/23 04:22:09;;;;;;;9.85;5.70;;;;;;;9.45;96.08;100835.14;1647850;85;21066;-54
2021/09/23 04:24:38;;;;;;;9.40;6.05;;;;;;;9.48;95.84;100835.97;1649234;85;21072;-53
2021/09/23 04:27:06;;;;;;;11.05;6.05;;;;;;;9.52;95.75;100839.86;1623280;86;21049;-53
2021/09/23 04:29:43;;;;;;;14.93;6.25;;;;;;;9.53;95.38;100839.38;1646651;86;21075;-53
2021/09/23 04:37:23;;;;;;;14.03;6.35;;;;;;;9.62;95.21;100839.13;1646839;85;21154;-54
2021/09/23 04:39:51;;;;;;;8.93;6.53;;;;;;;9.70;95.10;100842.45;1636199;85;21099;-54
2021/09/23 04:42:19;;;;;;;13.03;5.42;;;;;;;9.73;94.49;100846.36;1649396;86;21626;-53
2021/09/23 04:44:48;;;;;;;18.40;6.40;;;;;;;9.73;94.22;100850.37;1622054;86;21796;-53
2021/09/23 04:47:16;;;;;;;17.77;6.37;;;;;;;9.78;94.24;100856.05;1645635;85;21068;-53
2021/09/23 04:49:44;;;;;;;12.90;6.22;;;;;;;9.82;94.03;100860.39;1646872;86;21084;-54
2021/09/23 04:52:11;;;;;;;10.75;5.87;;;;;;;9.85;93.71;100860.33;1643009;86;21087;-54
2021/09/23 04:54:40;;;;;;;15.53;6.97;;;;;;;9.87;93.49;100855.80;1644715;86;21127;-54
2021/09/23 04:57:13;;;;;;;10.95;5.85;;;;;;;9.87;93.25;100855.31;1648999;86;21177;-54
2021/09/23 04:59:44;;;;;;;11.45;6.50;;;;;;;9.88;93.03;100860.23;1646561;85;21072;-53
2021/09/23 05:02:13;;;;;;;14.33;6.90;;;;;;;9.85;92.86;100857.16;1651413;86;21087;-53
2021/09/23 05:04:44;;;;;;;13.85;6.78;;;;;;;9.87;92.99;100862.49;1640974;85;21040;-54
2021/09/23 05:07:25;;;;;;;18.17;6.62;;;;;;;9.91;92.90;100861.47;1646696;85;21274;-53
2021/09/23 05:09:53;;;;;;;19.27;8.13;;;;;;;9.97;92.65;100859.07;1648563;86;21093;-54
2021/09/23 05:12:21;;;;;;;11.18;5.95;;;;;;;10.00;92.44;100864.33;1644922;86;21072;-54
2021/09/23 05:14:51;;;;;;;15.25;9.00;;;;;;;10.01;91.69;100865.60;1642130;85;21012;-54
2021/09/23 05:17:18;;;;;;;10.63;6.47;;;;;;;9.95;91.45;100859.59;1642174;86;21056;-54
2021/09/23 05:19:45;;;;;;;12.90;6.87;;;;;;;9.92;91.47;100864.56;1651200;86;21138;-54
2021/09/23 05:22:15;;;;;;;14.33;6.37;;;;;;;9.93;91.61;100862.74;1647039;86;21027;-54
2021/09/23 05:24:52;;;;;;;10.40;5.75;;;;;;;9.96;91.57;100862.20;1647016;85;21537;-55
2021/09/23 05:27:20;;;;;;;12.07;6.37;;;;;;;9.99;91.20;100867.94;1641331;85;21120;-55
2021/09/23 05:29:53;;;;;;;14.73;6.55;;;;;;;10.00;91.23;100858.97;1640732;85;21015;-53
2021/09/23 05:32:21;;;;;;;15.40;6.28;;;;;;;10.00;91.13;100869.20;1650320;86;21536;-54
2021/09/23 05:34:51;;;;;;;9.40;5.50;;;;;;;10.02;91.05;100865.16;1645602;86;21169;-54
2021/09/23 05:37:18;;;;;;;18.62;11.33;;;;;;;10.03;90.50;100865.09;1650005;86;21513;-54
2021/09/23 05:39:47;;;;;;;15.40;7.60;;;;;;;10.04;89.56;100880.23;1637942;85;21516;-54
2021/09/23 05:42:14;;;;;;;12.07;6.80;;;;;;;10.02;88.67;100866.02;1646972;85;21596;-54
2021/09/23 05:44:51;;;;;;;17.35;5.53;;;;;;;10.04;88.61;100864.64;1646888;86;21044;-55
2021/09/23 05:52:25;;;;;;;13.08;4.55;;;;;;;10.28;87.30;100873.73;1669523;85;21067;-56
2021/09/23 05:54:53;;;;;;;9.00;4.72;;;;;;;10.35;87.00;100876.20;1654106;84;21536;-54
2021/09/23 05:57:32;;;;;;;9.68;4.62;;;;;;;10.46;86.23;100880.77;1656557;85;21084;-54
2021/09/23 06:00:10;;;;;;;9.58;4.80;;;;;;;10.54;85.70;100884.09;1666698;84;21876;-59
2021/09/23 06:03:00;;;;;;;7.67;4.40;;;;;;;10.60;83.71;100905.34;1647488;85;21273;-55
2021/09/23 06:05:32;;;;;;;8.15;4.62;;;;;;;10.60;82.48;100886.56;1655186;85;22305;-55
2021/09/23 06:08:00;;;;;;;6.37;4.47;;;;;;;10.67;83.01;100893.95;1661773;84;21110;-55
2021/09/23 06:13:34;;;;;;;9.23;4.15;;;;;;;10.87;80.89;100901.31;1653446;85;21145;-55
2021/09/23 06:16:08;;;;;;;6.12;3.83;;;;;;;10.96;80.49;100892.56;1665696;84;21494;-54
2021/09/23 06:18:36;;;;;;;7.70;4.03;;;;;;;11.14;80.22;100898.61;1655614;85;21436;-54
2021/09/23 06:21:05;;;;;;;7.03;5.12;;;;;;;11.27;77.78;100903.55;1660721;85;21035;-55
2021/09/23 06:23:32;;;;;;;8.10;5.10;;;;;;;11.35;77.45;100900.12;1653628;85;21778;-55
2021/09/23 06:26:00;;;;;;;7.78;5.28;;;;;;;11.38;77.39;100900.00;1654868;85;21854;-55
2021/09/23 06:28:29;;;;;;;6.53;4.50;;;;;;;11.52;76.49;100901.32;1651090;85;21084;-54
2021/09/23 06:30:59;;;;;;;7.65;5.83;;;;;;;11.56;74.89;100907.87;1642531;85;21525;-55
2021/09/23 06:33:29;;;;;;;11.05;6.70;;;;;;;11.57;74.45;100900.23;1657250;85;21135;-56
2021/09/23 06:35:58;;;;;;;10.40;7.17;;;;;;;11.75;74.98;100897.80;1648194;85;21353;-54
2021/09/23 06:38:31;;;;;;;8.90;5.25;;;;;;;12.01;74.20;100884.72;1667392;84;21101;-54
2021/09/23 06:40:58;;;;;;;8.93;5.85;;;;;;;12.13;73.03;100899.98;1670562;84;21066;-53
2021/09/23 06:43:25;;;;;;;10.80;5.15;;;;;;;12.12;72.26;100901.77;1647499;85;21030;-54
2021/09/23 06:45:52;;;;;;;8.18;5.62;;;;;;;12.14;72.21;100886.45;1660375;85;21131;-54
2021/09/23 06:48:21;;;;;;;7.53;4.40;;;;;;;12.13;71.71;100897.28;1665280;84;21089;-54
2021/09/23 06:53:25;;;;;;;6.42;4.30;;;;;;;12.10;71.82;100894.73;1671556;84;21021;-54
2021/09/23 06:58:26;;;;;;;5.35;3.50;;;;;;;12.30;70.07;100912.29;1656400;85;21065;-55
2021/09/23 07:03:48;;;;;;;10.38;5.47;;;;;;;12.12;70.07;100898.23;1634684;85;21174;-59
2021/09/23 07:06:25;;;;;;;11.83;4.55;;;;;;;12.34;69.91;100886.14;1643704;86;21011;-59
2021/09/23 07:16:36;;;;;;;11.60;6.62;;;;;;;13.30;63.06;100894.25;1645809;85;21563;-54
2021/09/23 07:24:19;;;;;;;18.82;11.22;;;;;;;12.73;65.62;100904.77;1645203;85;21074;-54
2021/09/23 07:26:48;;;;;;;9.13;6.05;;;;;;;12.71;65.86;100911.98;1658074;85;21095;-55
2021/09/23 07:29:25;;;;;;;11.00;8.40;;;;;;;12.66;65.99;100899.20;1645999;85;21123;-54
2021/09/23 07:34:27;;;;;;;5.60;4.15;;;;;;;12.74;65.04;100905.16;1657737;85;21635;-54
2021/09/23 07:36:55;;;;;;;13.75;8.18;;;;;;;12.63;65.29;100902.03;1666531;85;21119;-54
2021/09/23 07:39:23;;;;;;;8.60;4.75;;;;;;;12.61;66.07;100897.59;1668966;85;21155;-54
2021/09/23 07:41:51;;;;;;;6.75;4.05;;;;;;;12.66;66.08;100903.24;1658592;85;21517;-54
2021/09/23 07:44:22;;;;;;;4.83;3.87;;;;;;;12.61;65.39;100902.11;1667016;85;21081;-54
2021/09/23 07:49:18;;;;;;;10.75;3.27;;;;;;;12.48;65.48;100897.67;1652418;85;21064;-58
2021/09/23 07:51:46;;;;;;;12.10;8.80;;;;;;;12.56;65.54;100885.27;1643953;85;21048;-58
2021/09/23 07:54:15;;;;;;;10.43;5.80;;;;;;;12.74;63.64;100895.27;1655424;85;21074;-58
2021/09/23 07:56:44;;;;;;;8.25;4.40;;;;;;;12.76;63.45;100900.59;1652606;85;21630;-58
2021/09/23 07:59:12;;;;;;;6.60;3.47;;;;;;;12.69;64.20;100893.24;1661068;85;21051;-58
2021/09/23 08:01:39;;;;;;;4.05;2.50;;;;;;;12.73;64.00;100899.38;1660426;85;21120;-58
2021/09/23 08:04:07;;;;;;;4.08;2.17;;;;;;;12.66;62.73;100912.66;1671391;84;21056;-54
2021/09/23 08:06:35;;;;;;;3.90;1.77;;;;;;;12.49;61.70;100906.18;1662076;85;21572;-54
2021/09/23 08:09:02;;;;;;;6.40;3.25;;;;;;;12.25;62.28;100899.48;1642582;86;21198;-60
2021/09/23 08:11:31;;;;;;;7.92;4.53;;;;;;;12.08;63.36;100908.70;1633874;86;21077;-55
2021/09/23 08:14:18;;;;;;;9.78;6.25;;;;;;;12.00;64.37;100899.55;1634267;86;21107;-58
2021/09/23 08:16:49;;;;;;;6.28;4.35;;;;;;;12.06;65.39;100897.13;1674679;83;21104;-59
2021/09/23 08:19:21;;;;;;;6.83;2.95;;;;;;;12.13;65.89;100903.52;1639301;86;21194;-56
2021/09/23 08:21:59;;;;;;;2.47;1.90;;;;;;;12.11;66.06;100901.85;1638770;85;21092;-61
2021/09/23 08:24:45;;;;;;;5.25;2.02;;;;;;;12.16;63.80;100905.23;1692754;84;21104;-55
2021/09/23 08:27:13;;;;;;;5.37;3.00;;;;;;;12.11;62.13;100900.51;1664593;83;21157;-57
2021/09/23 08:29:45;;;;;;;4.15;2.52;;;;;;;12.13;63.16;100897.28;1655632;85;21018;-58
2021/09/23 08:32:23;;;;;;;5.25;2.77;;;;;;;12.27;64.23;100892.25;1641525;86;21149;-58
2021/09/23 08:37:21;;;;;;;12.82;3.33;;;;;;;12.44;64.80;100894.70;1654549;85;21558;-58
2021/09/23 08:39:49;;;;;;;9.55;3.00;;;;;;;12.54;65.11;100901.48;1665564;85;21085;-58
2021/09/23 08:42:33;;;;;;;5.42;3.30;;;;;;;12.68;64.63;100894.19;1670755;84;21166;-54
2021/09/23 08:47:48;;;;;;;5.53;2.72;;;;;;;12.81;63.51;100897.23;1647915;85;21060;-54
2021/09/23 08:55:33;;;;;;;4.20;2.42;;;;;;;12.73;63.69;100894.00;1650161;85;21103;-54
2021/09/23 08:58:04;;;;;;;9.23;2.60;;;;;;;12.66;64.03;100901.90;1649557;85;21827;-53
2021/09/23 09:00:34;;;;;;;7.90;2.72;;;;;;;12.52;64.23;100895.75;1646310;86;21599;-54
2021/09/23 09:03:09;;;;;;;5.62;2.45;;;;;;;12.37;64.89;100908.00;1652271;84;21087;-58
2021/09/23 09:08:33;;;;;;;8.43;4.00;;;;;;;12.09;64.39;100905.06;1662392;84;21081;-58
2021/09/23 09:13:53;;;;;;;7.20;3.98;;;;;;;11.88;65.14;100908.47;1654095;84;21105;-57
2021/09/23 09:18:57;;;;;;;9.80;5.80;;;;;;;11.68;66.69;100906.55;1644841;84;21102;-58
2021/09/23 09:21:25;;;;;;;9.35;4.03;;;;;;;11.62;67.16;100908.13;1644061;85;21066;-59
2021/09/23 09:24:03;;;;;;;43.83;25.17;;;;;;;11.66;67.33;100916.92;1675448;83;21089;-59
2021/09/23 09:29:34;;;;;;;11.40;5.67;;;;;;;11.68;66.74;100909.69;1654783;85;21122;-58
2021/09/23 09:32:05;;;;;;;13.05;7.95;;;;;;;11.69;66.25;100906.95;1662731;83;21109;-58
2021/09/23 09:34:31;;;;;;;12.53;4.60;;;;;;;11.73;66.52;100903.22;1651825;85;21493;-59
2021/09/23 09:37:01;;;;;;;6.95;3.58;;;;;;;11.92;66.48;100903.87;1655099;85;21337;-59
2021/09/23 09:42:14;;;;;;;6.97;2.63;;;;;;;12.31;64.89;100904.63;1651457;85;21080;-57
2021/09/23 09:50:48;;;;;;;5.22;3.42;;;;;;;12.57;60.54;100917.48;1646003;85;21121;-57
2021/09/23 09:55:49;;;;;;;3.22;2.50;;;;;;;12.64;59.93;100909.16;1672524;85;21070;-58
2021/09/23 09:58:24;;;;;;;11.25;4.10;;;;;;;12.70;60.40;100907.55;1674568;84;21624;-58
2021/09/23 10:00:51;;;;;;;2.58;2.20;;;;;;;12.82;60.62;100901.67;1669183;84;21107;-58
2021/09/23 10:05:49;;;;;;;12.73;3.67;;;;;;;13.08;60.12;100910.45;1660145;84;21076;-58
2021/09/23 10:08:20;;;;;;;3.10;2.47;;;;;;;13.12;59.61;100917.44;1648931;85;21694;-57
2021/09/23 10:15:55;;;;;;;7.25;3.20;;;;;;;12.84;59.45;100913.24;1650107;85;21128;-54
2021/09/23 10:21:00;;;;;;;4.05;2.70;;;;;;;12.76;60.63;100910.01;1649001;86;21461;-54
2021/09/23 10:23:31;;;;;;;6.10;2.80;;;;;;;12.78;60.59;100912.62;1669300;84;21065;-54
2021/09/23 10:28:28;;;;;;;5.95;3.02;;;;;;;12.71;61.22;100912.88;1649714;85;21800;-54
2021/09/23 10:30:55;;;;;;;7.15;2.98;;;;;;;12.60;61.50;100911.98;1658215;85;21088;-54
2021/09/23 10:33:34;;;;;;;4.85;3.08;;;;;;;12.48;62.40;100911.12;1623131;84;21079;-54
2021/09/23 10:36:02;;;;;;;10.55;4.22;;;;;;;12.43;62.58;100903.71;1652939;85;21100;-54
2021/09/23 10:38:31;;;;;;;6.65;3.10;;;;;;;12.45;62.77;100911.25;1635049;85;21745;-54
2021/09/23 10:40:59;;;;;;;5.08;3.20;;;;;;;12.47;62.45;100906.68;1643436;85;21562;-53
2021/09/23 10:43:28;;;;;;;14.58;4.53;;;;;;;12.52;61.98;100908.73;1654287;84;21142;-55
2021/09/23 10:45:59;;;;;;;6.72;3.22;;;;;;;12.58;61.92;100906.24;1665417;85;21659;-54
2021/09/23 10:51:33;;;;;;;8.03;3.20;;;;;;;12.83;61.35;100910.14;1627484;86;21086;-55
2021/09/23 11:01:55;;;;;;;6.58;2.87;;;;;;;12.92;60.39;100903.51;1652122;85;21158;-55
2021/09/23 11:04:24;;;;;;;7.72;3.50;;;;;;;12.88;60.46;100904.09;1642898;85;21067;-54
2021/09/23 11:06:55;;;;;;;18.02;4.53;;;;;;;12.88;60.48;100914.86;1634358;86;21080;-56
2021/09/23 11:12:26;;;;;;;4.78;2.90;;;;;;;12.72;59.64;100911.08;1644330;85;21118;-56
2021/09/23 11:14:57;;;;;;;4.53;2.95;;;;;;;12.70;60.21;100916.97;1656106;83;21560;-56
2021/09/23 11:17:27;;;;;;;6.30;3.33;;;;;;;12.65;60.49;100913.59;1639028;86;21148;-55
2021/09/23 11:20:26;;;;;;;5.30;3.67;;;;;;;12.53;61.11;100910.94;1655557;85;21710;-54
2021/09/23 11:23:34;;;;;;;8.25;3.75;;;;;;;12.46;61.65;100927.79;1661061;84;21062;-55
2021/09/23 11:29:20;;;;;;;5.92;3.75;;;;;;;12.42;61.97;100924.82;1643977;85;21102;-57
2021/09/23 11:31:53;;;;;;;6.40;3.67;;;;;;;12.47;61.68;100914.75;1644294;86;21087;-59
2021/09/23 11:34:35;;;;;;;10.25;3.80;;;;;;;12.50;61.16;100928.09;1642373;86;21656;-57
2021/09/23 11:37:04;;;;;;;6.10;3.90;;;;;;;12.55;61.55;100925.20;1641418;86;21722;-57
2021/09/23 11:39:34;;;;;;;4.92;2.65;;;;;;;12.55;62.13;100907.72;1645853;86;21075;-57
2021/09/23 11:42:11;;;;;;;5.20;2.58;;;;;;;12.57;63.08;100916.14;1643657;86;21520;-57
2021/09/23 11:44:38;;;;;;;6.60;2.80;;;;;;;12.51;63.58;100923.12;1663400;84;21137;-57
2021/09/23 11:47:14;;;;;;;9.48;2.85;;;;;;;12.41;64.06;100912.31;1662600;85;21577;-56
2021/09/23 11:49:43;;;;;;;5.10;2.95;;;;;;;12.32;64.45;100927.89;1648345;85;21649;-57
2021/09/23 11:52:10;;;;;;;7.05;3.00;;;;;;;12.25;64.55;100920.98;1658509;85;21100;-57
2021/09/23 11:57:29;;;;;;;5.92;2.95;;;;;;;12.09;64.93;100925.22;1638852;85;21126;-57
2021/09/23 12:02:55;;;;;;;10.28;3.00;;;;;;;12.03;65.06;100929.88;1650770;85;21099;-54
2021/09/23 12:05:27;;;;;;;12.55;3.27;;;;;;;11.99;65.33;100925.53;1659257;85;33035;-54
2021/09/23 12:07:55;;;;;;;5.45;2.65;;;;;;;11.98;65.13;100949.30;1663336;84;21073;-54
2021/09/23 12:13:03;;;;;;;10.13;3.25;;;;;;;11.92;65.71;100933.42;1644203;85;21564;-57
2021/09/23 12:15:32;;;;;;;5.00;2.45;;;;;;;11.96;65.75;100927.47;1650768;85;21445;-56
2021/09/23 12:18:03;;;;;;;5.90;2.92;;;;;;;11.99;65.69;100930.90;1671019;84;21448;-57
2021/09/23 12:25:37;;;;;;;13.68;5.17;;;;;;;12.12;65.52;100922.41;1670229;85;21167;-56
2021/09/23 12:30:36;;;;;;;13.72;4.85;;;;;;;12.31;65.04;100924.80;1662523;85;21172;-56
2021/09/23 12:33:23;;;;;;;9.03;3.67;;;;;;;12.41;64.56;100918.59;1661288;84;21078;-58
2021/09/23 12:35:56;;;;;;;5.95;3.12;;;;;;;12.51;63.02;100925.81;1661772;85;20973;-55
2021/09/23 12:38:25;;;;;;;8.58;3.58;;;;;;;12.54;62.84;100921.66;1669016;85;21478;-55
2021/09/23 12:46:11;;;;;;;5.20;3.00;;;;;;;12.72;62.66;100921.36;1648680;85;21108;-56
2021/09/23 12:48:39;;;;;;;9.70;3.30;;;;;;;12.78;62.65;100926.96;1655272;85;21094;-55
2021/09/23 12:51:12;;;;;;;4.92;2.40;;;;;;;12.89;62.19;100923.33;1642334;84;21783;-55
2021/09/23 12:53:41;;;;;;;6.05;2.77;;;;;;;12.94;60.63;100924.98;1649600;84;21154;-56
2021/09/23 12:56:08;;;;;;;6.87;2.58;;;;;;;12.95;60.44;100930.77;1653145;85;21178;-55
2021/09/23 12:58:38;;;;;;;3.70;2.05;;;;;;;13.01;60.20;100923.77;1626946;86;21139;-55
2021/09/23 13:09:07;;;;;;;6.72;2.20;;;;;;;12.92;58.47;100930.88;1651190;85;21077;-55
2021/09/23 13:11:36;;;;;;;8.68;2.60;;;;;;;12.89;58.81;100935.45;1651177;85;21143;-52
2021/09/23 13:14:26;;;;;;;5.62;2.25;;;;;;;12.93;59.02;100927.23;1669906;84;21218;-55
2021/09/23 13:22:35;;;;;;;6.05;4.28;;;;;;;13.06;59.24;100933.01;1665342;84;20989;-55
2021/09/23 13:25:02;;;;;;;3.35;1.70;;;;;;;13.03;59.14;100923.23;1661415;85;21540;-54
2021/09/23 13:32:50;;;;;;;5.12;2.00;;;;;;;13.01;60.06;100922.42;1674047;85;21107;-54
2021/09/23 13:35:31;;;;;;;8.38;1.80;;;;;;;12.95;60.41;100927.59;1670054;84;21219;-55
2021/09/23 13:40:34;;;;;;;4.08;2.15;;;;;;;12.83;60.73;100931.67;1631281;86;21198;-55
2021/09/23 13:50:40;;;;;;;8.38;2.42;;;;;;;12.74;61.67;100939.66;1662428;85;21121;-55
2021/09/23 13:53:09;;;;;;;3.98;2.00;;;;;;;12.76;61.89;100942.30;1658085;85;21103;-54
2021/09/23 13:55:38;;;;;;;10.05;2.33;;;;;;;12.75;61.39;100945.92;1680568;83;21193;-55
2021/09/23 13:58:09;;;;;;;6.65;2.70;;;;;;;12.69;61.54;100937.63;1656639;85;21512;-55
2021/09/23 14:00:36;;;;;;;7.83;3.40;;;;;;;12.69;60.99;100936.73;1669016;84;20921;-54
2021/09/23 14:03:04;;;;;;;4.80;2.35;;;;;;;12.63;60.98;100943.72;1671547;84;21004;-55
2021/09/23 14:05:33;;;;;;;10.63;2.85;;;;;;;12.56;61.17;100935.02;1645748;85;21142;-56
2021/09/23 14:08:00;;;;;;;7.00;2.80;;;;;;;12.50;61.50;100952.30;1650342;85;21607;-54
2021/09/23 14:10:28;;;;;;;4.80;2.83;;;;;;;12.47;61.59;100945.67;1663352;84;21204;-55
2021/09/23 14:13:13;;;;;;;6.08;3.15;;;;;;;12.40;61.74;100951.78;1648671;85;21174;-55
2021/09/23 14:15:42;;;;;;;9.90;3.45;;;;;;;12.36;62.02;100945.23;1650220;85;21198;-55
2021/09/23 14:18:12;;;;;;;6.97;3.37;;;;;;;12.32;62.33;100953.88;1645593;86;21103;-55
2021/09/23 14:20:41;;;;;;;4.58;2.50;;;;;;;12.27;62.84;100954.53;1645650;85;21588;-55
2021/09/23 14:23:21;;;;;;;5.83;2.75;;;;;;;12.24;63.09;100949.28;1648646;85;21386;-55
2021/09/23 14:28:23;;;;;;;7.15;2.77;;;;;;;12.20;63.67;100951.20;1641297;84;21667;-55
2021/09/23 14:31:04;;;;;;;4.08;2.40;;;;;;;12.21;63.65;100948.92;1691053;83;21073;-56
2021/09/23 14:33:33;;;;;;;6.97;2.90;;;;;;;12.21;63.67;100948.92;1662962;83;21085;-56
2021/09/23 14:36:01;;;;;;;4.83;2.25;;;;;;;12.23;63.71;100952.91;1663911;85;21154;-55
2021/09/23 14:38:29;;;;;;;6.80;3.05;;;;;;;12.23;63.73;100950.22;1663332;85;21111;-54
2021/09/23 14:40:57;;;;;;;3.67;2.22;;;;;;;12.23;63.65;100952.42;1641511;85;21230;-54
2021/09/23 14:43:25;;;;;;;4.53;2.25;;;;;;;12.22;63.48;100953.36;1647723;85;21211;-55
2021/09/23 14:46:02;;;;;;;9.48;2.85;;;;;;;12.23;63.15;100957.80;1658590;85;21145;-55